createdAt,value
2018-08-11T00:00:25.500Z,61.03
2018-08-11T00:02:54.452Z,60.20
2018-08-11T00:05:23.309Z,60.71
2018-08-11T00:07:52.263Z,61.64
2018-08-11T00:10:21.297Z,61.38
2018-08-11T00:12:50.032Z,61.35
2018-08-11T00:15:20.519Z,61.13
2018-08-11T00:17:49.770Z,60.99
2018-08-11T00:20:27.505Z,61.35
2018-08-11T00:22:56.430Z,61.38
2018-08-11T00:25:25.326Z,61.46
2018-08-11T00:27:54.211Z,60.94
2018-08-11T00:30:23.584Z,61.28
2018-08-11T00:32:52.523Z,61.54
2018-08-11T00:35:22.030Z,61.95
2018-08-11T00:37:50.807Z,61.51
2018-08-11T00:40:20.554Z,61.86
2018-08-11T00:42:50.384Z,61.21
2018-08-11T00:45:20.310Z,61.37
2018-08-11T00:47:49.158Z,61.91
2018-08-11T00:50:20.991Z,61.13
2018-08-11T00:52:49.850Z,61.30
2018-08-11T00:55:18.708Z,62.16
2018-08-11T00:57:48.222Z,61.69
2018-08-11T01:00:18.532Z,62.27
2018-08-11T01:02:47.501Z,62.17
2018-08-11T01:05:18.267Z,62.21
2018-08-11T01:07:47.567Z,61.85
2018-08-11T01:10:16.976Z,62.67
2018-08-11T01:12:46.489Z,61.82
2018-08-11T01:15:19.559Z,61.97
2018-08-11T01:17:49.163Z,62.80
2018-08-11T01:20:18.272Z,62.03
2018-08-11T01:22:47.779Z,62.75
2018-08-11T01:25:16.795Z,62.66
2018-08-11T01:27:45.587Z,63.13
2018-08-11T01:30:20.011Z,62.48
2018-08-11T01:32:48.825Z,63.12
2018-08-11T01:35:17.675Z,63.78
2018-08-11T01:37:47.169Z,63.05
2018-08-11T01:40:16.812Z,63.33
2018-08-11T01:42:47.266Z,64.21
2018-08-11T01:45:16.702Z,63.71
2018-08-11T01:47:45.868Z,63.99
2018-08-11T01:50:16.357Z,64.57
2018-08-11T01:52:46.390Z,64.76
2018-08-11T01:55:16.678Z,64.52
2018-08-11T01:57:46.567Z,64.17
2018-08-11T02:00:16.622Z,64.58
2018-08-11T02:02:45.458Z,64.56
2018-08-11T02:05:14.451Z,65.11
2018-08-11T02:07:44.190Z,65.29
2018-08-11T02:10:14.514Z,64.63
2018-08-11T02:12:43.520Z,64.49
2018-08-11T02:15:13.763Z,65.08
2018-08-11T02:17:42.949Z,65.29
2018-08-11T02:20:19.412Z,64.84
2018-08-11T02:22:49.522Z,64.73
2018-08-11T02:25:18.711Z,65.33
2018-08-11T02:27:47.542Z,65.75
2018-08-11T02:30:17.553Z,65.68
2018-08-11T02:32:46.433Z,65.01
2018-08-11T02:35:15.520Z,65.23
2018-08-11T02:37:44.706Z,65.63
2018-08-11T02:40:15.052Z,66.00
2018-08-11T02:42:43.877Z,65.25
2018-08-11T02:45:16.111Z,66.24
2018-08-11T02:47:45.499Z,66.46
2018-08-11T02:50:14.644Z,65.57
2018-08-11T02:52:43.788Z,66.00
2018-08-11T02:55:12.788Z,66.42
2018-08-11T02:57:41.614Z,65.49
2018-08-11T03:00:11.923Z,65.54
2018-08-11T03:02:40.810Z,66.27
2018-08-11T03:05:10.034Z,66.09
2018-08-11T03:07:39.214Z,65.99
2018-08-11T03:10:10.483Z,65.27
2018-08-11T03:12:39.786Z,65.31
2018-08-11T03:15:10.175Z,65.87
2018-08-11T03:17:39.384Z,66.22
2018-08-11T03:20:10.986Z,66.57
2018-08-11T03:22:39.756Z,65.86
2018-08-11T03:25:09.730Z,65.90
2018-08-11T03:27:38.832Z,66.54
2018-08-11T03:30:08.234Z,66.30
2018-08-11T03:32:37.129Z,66.11
2018-08-11T03:35:06.370Z,65.99
2018-08-11T03:37:35.210Z,65.08
2018-08-11T03:40:04.052Z,64.59
2018-08-11T03:42:32.827Z,64.51
2018-08-11T03:45:01.594Z,64.97
2018-08-11T03:47:30.398Z,64.90
2018-08-11T03:49:59.158Z,65.15
2018-08-11T03:52:28.066Z,64.90
2018-08-11T03:54:56.822Z,64.91
2018-08-11T03:57:25.563Z,64.36
2018-08-11T03:59:54.330Z,65.14
2018-08-11T04:02:23.495Z,64.96
2018-08-11T04:04:52.266Z,64.39
2018-08-11T04:07:20.978Z,64.15
2018-08-11T04:09:49.795Z,64.09
2018-08-11T04:12:18.597Z,64.80
2018-08-11T04:14:47.348Z,64.14
2018-08-11T04:17:16.168Z,64.87
2018-08-11T04:19:44.977Z,64.91
2018-08-11T04:22:13.967Z,64.44
2018-08-11T04:24:42.736Z,64.45
2018-08-11T04:27:11.435Z,63.50
2018-08-11T04:29:40.151Z,63.73
2018-08-11T04:32:09.150Z,63.38
2018-08-11T04:34:37.980Z,63.46
2018-08-11T04:37:06.767Z,63.36
2018-08-11T04:39:36.169Z,63.13
2018-08-11T04:42:04.951Z,62.69
2018-08-11T04:44:33.988Z,60.03
2018-08-11T04:47:02.798Z,57.27
2018-08-11T04:49:31.554Z,54.32
2018-08-11T04:52:00.702Z,52.39
2018-08-11T04:54:29.421Z,50.44
2018-08-11T04:56:58.181Z,49.01
2018-08-11T04:59:27.082Z,47.41
2018-08-11T05:01:55.904Z,46.95
2018-08-11T05:04:24.724Z,46.84
2018-08-11T05:06:53.538Z,45.43
2018-08-11T05:09:22.337Z,45.25
2018-08-11T05:11:51.943Z,46.54
2018-08-11T05:14:20.790Z,46.07
2018-08-11T05:16:49.912Z,45.93
2018-08-11T05:19:18.761Z,46.13
2018-08-11T05:21:47.631Z,46.85
2018-08-11T05:24:16.409Z,47.10
2018-08-11T05:26:45.286Z,47.31
2018-08-11T05:29:14.044Z,49.68
2018-08-11T05:31:42.884Z,50.07
2018-08-11T05:34:11.997Z,51.41
2018-08-11T05:36:40.771Z,51.97
2018-08-11T05:39:12.884Z,50.95
2018-08-11T05:41:41.698Z,51.91
2018-08-11T05:44:10.632Z,50.91
2018-08-11T05:46:39.822Z,51.38
2018-08-11T05:49:09.089Z,51.90
2018-08-11T05:51:37.934Z,52.30
2018-08-11T05:54:06.797Z,51.55
2018-08-11T05:56:35.562Z,51.77
2018-08-11T05:59:04.784Z,51.91
2018-08-11T06:01:33.613Z,52.11
2018-08-11T06:04:02.381Z,52.33
2018-08-11T06:06:31.470Z,53.14
2018-08-11T06:09:00.322Z,52.31
2018-08-11T06:11:29.140Z,53.11
2018-08-11T06:13:58.507Z,53.00
2018-08-11T06:16:27.270Z,52.67
2018-08-11T06:18:55.976Z,52.11
2018-08-11T06:21:24.720Z,53.01
2018-08-11T06:23:53.560Z,52.94
2018-08-11T06:26:22.346Z,52.99
2018-08-11T06:28:54.224Z,54.08
2018-08-11T06:31:23.044Z,53.57
2018-08-11T06:33:52.353Z,54.92
2018-08-11T06:36:21.100Z,55.37
2018-08-11T06:38:50.148Z,56.16
2018-08-11T06:41:18.898Z,54.85
2018-08-11T06:43:47.660Z,54.95
2018-08-11T06:46:16.449Z,55.50
2018-08-11T06:48:45.574Z,54.81
2018-08-11T06:51:14.817Z,54.93
2018-08-11T06:53:43.670Z,55.54
2018-08-11T06:56:12.467Z,55.18
2018-08-11T06:58:41.206Z,55.32
2018-08-11T07:01:10.040Z,54.18
2018-08-11T07:03:38.811Z,54.76
2018-08-11T07:06:07.581Z,54.59
2018-08-11T07:08:36.364Z,53.87
2018-08-11T07:11:05.193Z,54.12
2018-08-11T07:13:34.037Z,54.23
2018-08-11T07:16:02.791Z,54.40
2018-08-11T07:18:31.553Z,53.05
2018-08-11T07:21:00.470Z,53.30
2018-08-11T07:23:29.379Z,51.86
2018-08-11T07:25:58.146Z,51.97
2018-08-11T07:28:26.956Z,52.17
2018-08-11T07:30:55.916Z,51.85
2018-08-11T07:33:24.719Z,51.80
2018-08-11T07:35:53.642Z,52.63
2018-08-11T07:38:22.523Z,53.05
2018-08-11T07:40:51.493Z,52.03
2018-08-11T07:43:20.302Z,52.11
2018-08-11T07:45:49.239Z,50.23
2018-08-11T07:48:18.020Z,50.87
2018-08-11T07:50:46.825Z,50.46
2018-08-11T07:53:15.590Z,50.05
2018-08-11T07:55:46.476Z,48.58
2018-08-11T07:58:15.331Z,48.27
2018-08-11T08:00:44.067Z,47.36
2018-08-11T08:03:12.837Z,48.45
2018-08-11T08:05:41.868Z,47.91
2018-08-11T08:08:11.123Z,46.40
2018-08-11T08:10:39.961Z,45.46
2018-08-11T08:13:09.361Z,44.29
2018-08-11T08:15:38.389Z,44.31
2018-08-11T08:18:07.295Z,44.15
2018-08-11T08:20:36.099Z,43.90
2018-08-11T08:23:05.003Z,44.34
2018-08-11T08:25:33.777Z,44.72
2018-08-11T08:28:02.821Z,44.38
2018-08-11T08:30:31.667Z,44.40
2018-08-11T08:33:01.409Z,44.16
2018-08-11T08:35:30.216Z,44.11
2018-08-11T08:37:58.975Z,43.50
2018-08-11T08:40:27.745Z,44.43
2018-08-11T08:42:56.647Z,44.71
2018-08-11T08:45:25.431Z,44.71
2018-08-11T08:47:54.208Z,44.41
2018-08-11T08:50:22.972Z,44.36
2018-08-11T08:52:51.673Z,44.35
2018-08-11T08:55:20.397Z,43.74
2018-08-11T08:57:49.243Z,44.43
2018-08-11T09:00:18.031Z,44.35
2018-08-11T09:02:48.347Z,43.23
2018-08-11T09:05:17.184Z,43.91
2018-08-11T09:07:45.965Z,45.23
2018-08-11T09:10:14.718Z,41.89
2018-08-11T09:12:43.541Z,41.75
2018-08-11T09:15:12.740Z,42.85
2018-08-11T09:17:41.530Z,41.97
2018-08-11T09:20:10.275Z,41.09
2018-08-11T09:22:39.036Z,41.45
2018-08-11T09:25:08.518Z,42.59
2018-08-11T09:27:37.522Z,40.52
2018-08-11T09:30:07.775Z,41.67
2018-08-11T09:32:36.524Z,40.44
2018-08-11T09:35:05.370Z,39.80
2018-08-11T09:37:34.194Z,39.56
2018-08-11T09:40:02.958Z,39.58
2018-08-11T09:42:31.674Z,40.69
2018-08-11T09:45:00.557Z,39.40
2018-08-11T09:47:29.276Z,39.81
2018-08-11T09:49:58.025Z,39.38
2018-08-11T09:52:26.758Z,39.58
2018-08-11T09:54:55.547Z,40.47
2018-08-11T09:57:24.266Z,40.36
2018-08-11T09:59:52.971Z,40.98
2018-08-11T10:02:22.839Z,40.74
2018-08-11T10:04:51.640Z,41.63
2018-08-11T10:07:20.406Z,42.04
2018-08-11T10:09:49.221Z,40.99
2018-08-11T10:12:18.063Z,41.71
2018-08-11T10:14:46.835Z,41.25
2018-08-11T10:17:15.534Z,40.49
2018-08-11T10:19:44.242Z,40.73
2018-08-11T10:22:13.112Z,40.94
2018-08-11T10:24:41.846Z,39.70
2018-08-11T10:27:10.999Z,38.99
2018-08-11T10:29:39.787Z,39.47
2018-08-11T10:32:08.538Z,38.85
2018-08-11T10:34:37.278Z,38.98
2018-08-11T10:37:06.758Z,38.48
2018-08-11T10:39:35.522Z,39.00
2018-08-11T10:42:04.289Z,38.80
2018-08-11T10:44:34.929Z,38.72
2018-08-11T10:47:03.915Z,38.03
2018-08-11T10:49:32.847Z,38.26
2018-08-11T10:52:01.653Z,36.53
2018-08-11T10:54:30.429Z,37.60
2018-08-11T10:56:59.143Z,36.72
2018-08-11T10:59:27.870Z,38.24
2018-08-11T11:01:56.614Z,36.97
2018-08-11T11:04:25.384Z,37.43
2018-08-11T11:06:54.144Z,36.86
2018-08-11T11:09:23.074Z,36.57
2018-08-11T11:11:51.978Z,36.83
2018-08-11T11:14:20.711Z,35.94
2018-08-11T11:16:49.739Z,34.94
2018-08-11T11:19:18.500Z,35.19
2018-08-11T11:21:47.258Z,34.96
2018-08-11T11:24:15.997Z,35.11
2018-08-11T11:26:44.828Z,35.89
2018-08-11T11:29:13.611Z,35.72
2018-08-11T11:31:42.343Z,34.75
2018-08-11T11:34:11.119Z,35.35
2018-08-11T11:36:39.957Z,34.96
2018-08-11T11:39:09.369Z,34.10
2018-08-11T11:41:38.851Z,34.27
2018-08-11T11:44:08.043Z,34.78
2018-08-11T11:46:36.954Z,34.78
2018-08-11T11:49:05.985Z,35.90
2018-08-11T11:51:34.723Z,35.73
2018-08-11T11:54:03.508Z,35.60
2018-08-11T11:56:32.321Z,35.37
2018-08-11T11:59:01.084Z,35.79
2018-08-11T12:01:29.818Z,36.90
2018-08-11T12:03:58.679Z,35.55
2018-08-11T12:06:27.400Z,35.23
2018-08-11T12:08:56.190Z,35.33
2018-08-11T12:11:24.962Z,36.12
2018-08-11T12:13:53.679Z,34.76
2018-08-11T12:16:22.451Z,35.04
2018-08-11T12:18:51.174Z,34.18
2018-08-11T12:21:19.955Z,34.07
2018-08-11T12:23:48.780Z,33.97
2018-08-11T12:26:17.562Z,33.22
2018-08-11T12:28:46.394Z,32.39
2018-08-11T12:31:16.046Z,34.37
2018-08-11T12:33:45.084Z,33.66
2018-08-11T12:36:13.846Z,35.22
2018-08-11T12:38:42.633Z,34.79
2018-08-11T12:41:11.542Z,35.56
2018-08-11T12:43:40.280Z,34.86
2018-08-11T12:46:09.112Z,35.51
2018-08-11T12:48:37.814Z,35.06
2018-08-11T12:51:06.950Z,34.50
2018-08-11T12:53:35.840Z,34.25
2018-08-11T12:56:04.738Z,34.49
2018-08-11T12:58:33.594Z,33.76
2018-08-11T13:01:02.387Z,34.60
2018-08-11T13:03:31.244Z,34.85
2018-08-11T13:06:00.040Z,33.46
2018-08-11T13:08:28.882Z,32.86
2018-08-11T13:10:57.660Z,32.74
2018-08-11T13:13:26.435Z,33.09
2018-08-11T13:15:55.151Z,34.52
2018-08-11T13:18:24.275Z,35.07
2018-08-11T13:20:53.394Z,34.47
2018-08-11T13:23:22.131Z,34.44
2018-08-11T13:25:50.970Z,34.16
2018-08-11T13:28:19.759Z,34.89
2018-08-11T13:30:48.523Z,34.87
2018-08-11T13:33:17.352Z,35.51
2018-08-11T13:35:46.085Z,35.02
2018-08-11T13:38:15.425Z,34.50
2018-08-11T13:40:44.223Z,35.68
2018-08-11T13:43:12.934Z,34.99
2018-08-11T13:45:41.681Z,34.57
2018-08-11T13:48:10.643Z,34.69
2018-08-11T13:50:39.382Z,34.51
2018-08-11T13:53:08.115Z,33.81
2018-08-11T13:55:37.219Z,34.35
2018-08-11T13:58:06.450Z,34.42
2018-08-11T14:00:35.224Z,33.96
2018-08-11T14:03:04.112Z,33.97
2018-08-11T14:05:32.916Z,35.11
2018-08-11T14:08:01.652Z,33.72
2018-08-11T14:10:30.491Z,33.63
2018-08-11T14:12:59.286Z,34.02
2018-08-11T14:15:28.027Z,34.76
2018-08-11T14:17:56.812Z,34.35
2018-08-11T14:20:25.562Z,34.59
2018-08-11T14:22:54.475Z,35.63
2018-08-11T14:25:23.231Z,34.60
2018-08-11T14:27:51.998Z,34.49
2018-08-11T14:30:20.738Z,35.43
2018-08-11T14:32:49.556Z,35.97
2018-08-11T14:35:18.443Z,36.00
2018-08-11T14:37:47.263Z,34.98
2018-08-11T14:40:16.603Z,35.72
2018-08-11T14:42:49.894Z,36.82
2018-08-11T14:45:19.266Z,36.99
2018-08-11T14:47:48.067Z,36.64
2018-08-11T14:50:17.110Z,35.86
2018-08-11T14:52:46.062Z,36.56
2018-08-11T14:55:14.849Z,35.57
2018-08-11T14:57:43.581Z,35.61
2018-08-11T15:00:15.854Z,35.88
2018-08-11T15:02:44.630Z,36.38
2018-08-11T15:05:13.806Z,36.37
2018-08-11T15:07:42.687Z,36.46
2018-08-11T15:10:11.616Z,36.52
2018-08-11T15:12:40.538Z,36.85
2018-08-11T15:15:10.376Z,36.87
2018-08-11T15:17:42.280Z,37.14
2018-08-11T15:20:11.141Z,36.49
2018-08-11T15:22:40.333Z,35.14
2018-08-11T15:25:10.031Z,35.18
2018-08-11T15:27:39.127Z,35.91
2018-08-11T15:30:10.362Z,37.39
2018-08-11T15:32:39.165Z,37.39
2018-08-11T15:35:08.779Z,37.34
2018-08-11T15:37:37.657Z,37.26
2018-08-11T15:40:07.169Z,37.57
2018-08-11T15:42:36.060Z,37.24
2018-08-11T15:45:05.290Z,36.78
2018-08-11T15:47:34.409Z,36.47
2018-08-11T15:50:03.131Z,37.72
2018-08-11T15:52:31.903Z,37.97
2018-08-11T15:55:00.619Z,37.36
2018-08-11T15:57:29.467Z,37.88
2018-08-11T15:59:58.211Z,37.74
2018-08-11T16:02:27.203Z,37.43
2018-08-11T16:04:55.910Z,37.60
2018-08-11T16:07:24.682Z,37.91
2018-08-11T16:09:53.430Z,37.74
2018-08-11T16:12:22.673Z,37.35
2018-08-11T16:14:51.456Z,38.00
2018-08-11T16:17:20.180Z,37.49
2018-08-11T16:19:48.922Z,37.60
2018-08-11T16:22:17.658Z,37.75
2018-08-11T16:24:46.406Z,38.17
2018-08-11T16:27:15.167Z,38.66
2018-08-11T16:29:43.916Z,39.46
2018-08-11T16:32:13.015Z,39.79
2018-08-11T16:34:41.767Z,40.24
2018-08-11T16:37:10.529Z,39.34
2018-08-11T16:39:39.647Z,40.29
2018-08-11T16:42:08.440Z,40.38
2018-08-11T16:44:37.148Z,39.86
2018-08-11T16:47:06.127Z,40.97
2018-08-11T16:49:34.862Z,40.23
2018-08-11T16:52:03.698Z,41.29
2018-08-11T16:54:32.442Z,41.21
2018-08-11T16:57:01.192Z,41.65
2018-08-11T16:59:29.933Z,41.90
2018-08-11T17:01:58.897Z,42.12
2018-08-11T17:04:27.619Z,41.57
2018-08-11T17:06:56.334Z,42.33
2018-08-11T17:09:25.115Z,42.36
2018-08-11T17:11:53.884Z,43.02
2018-08-11T17:14:22.700Z,43.26
2018-08-11T17:16:51.441Z,43.07
2018-08-11T17:19:20.161Z,42.92
2018-08-11T17:21:49.064Z,44.10
2018-08-11T17:24:17.955Z,44.33
2018-08-11T17:26:46.715Z,44.18
2018-08-11T17:29:15.469Z,45.08
2018-08-11T17:31:44.166Z,45.10
2018-08-11T17:34:13.015Z,44.52
2018-08-11T17:36:41.798Z,45.51
2018-08-11T17:39:11.484Z,45.19
2018-08-11T17:41:40.522Z,45.79
2018-08-11T17:44:09.242Z,45.99
2018-08-11T17:46:38.079Z,45.46
2018-08-11T17:49:06.826Z,46.06
2018-08-11T17:51:35.755Z,45.78
2018-08-11T17:54:04.656Z,46.11
2018-08-11T17:56:33.434Z,47.13
2018-08-11T17:59:02.334Z,46.98
2018-08-11T18:01:31.115Z,47.18
2018-08-11T18:04:01.557Z,46.61
2018-08-11T18:06:30.793Z,46.85
2018-08-11T18:08:59.946Z,47.12
2018-08-11T18:11:28.762Z,47.24
2018-08-11T18:13:57.494Z,47.49
2018-08-11T18:16:26.326Z,47.88
2018-08-11T18:18:55.208Z,48.56
2018-08-11T18:21:23.934Z,47.82
2018-08-11T18:23:52.630Z,49.04
2018-08-11T18:26:21.536Z,49.18
2018-08-11T18:28:50.294Z,48.94
2018-08-11T18:31:19.198Z,49.00
2018-08-11T18:33:48.096Z,50.39
2018-08-11T18:36:16.870Z,50.04
2018-08-11T18:38:45.738Z,50.75
2018-08-11T18:41:14.519Z,50.57
2018-08-11T18:43:43.281Z,50.74
2018-08-11T18:46:12.081Z,49.28
2018-08-11T18:48:40.842Z,50.26
2018-08-11T18:51:10.172Z,48.85
2018-08-11T18:53:38.978Z,48.41
2018-08-11T18:56:07.821Z,46.36
2018-08-11T18:58:36.662Z,46.27
2018-08-11T19:01:05.974Z,45.96
2018-08-11T19:03:35.274Z,45.70
2018-08-11T19:06:04.118Z,46.18
2018-08-11T19:08:32.905Z,46.43
2018-08-11T19:11:01.675Z,46.08
2018-08-11T19:13:30.812Z,46.25
2018-08-11T19:15:59.606Z,45.96
2018-08-11T19:18:28.407Z,45.58
2018-08-11T19:20:57.220Z,46.37
2018-08-11T19:23:26.390Z,46.39
2018-08-11T19:25:55.175Z,46.08
2018-08-11T19:28:24.067Z,46.24
2018-08-11T19:30:52.854Z,47.32
2018-08-11T19:33:21.605Z,46.76
2018-08-11T19:35:50.346Z,47.66
2018-08-11T19:38:19.101Z,47.30
2018-08-11T19:40:48.346Z,46.94
2018-08-11T19:43:17.093Z,47.85
2018-08-11T19:45:45.893Z,48.01
2018-08-11T19:48:14.693Z,47.63
2018-08-11T19:50:43.871Z,47.86
2018-08-11T19:53:12.657Z,47.80
2018-08-11T19:55:41.450Z,47.72
2018-08-11T19:58:10.282Z,48.12
2018-08-11T20:00:39.142Z,47.60
2018-08-11T20:03:07.915Z,47.29
2018-08-11T20:05:36.706Z,47.18
2018-08-11T20:08:05.495Z,46.79
2018-08-11T20:10:34.666Z,45.68
2018-08-11T20:13:03.486Z,45.63
2018-08-11T20:15:32.320Z,46.03
2018-08-11T20:18:01.159Z,45.83
2018-08-11T20:20:29.950Z,46.63
2018-08-11T20:22:58.786Z,46.76
2018-08-11T20:25:27.660Z,46.68
2018-08-11T20:27:56.518Z,46.61
2018-08-11T20:30:25.410Z,45.72
2018-08-11T20:32:54.206Z,45.69
2018-08-11T20:35:23.404Z,45.75
2018-08-11T20:37:52.223Z,45.26
2018-08-11T20:40:20.976Z,45.68
2018-08-11T20:42:50.089Z,45.52
2018-08-11T20:45:18.832Z,45.92
2018-08-11T20:47:47.691Z,45.65
2018-08-11T20:50:16.440Z,46.24
2018-08-11T20:52:45.260Z,45.46
2018-08-11T20:55:14.113Z,45.44
2018-08-11T20:57:42.903Z,45.62
2018-08-11T21:00:13.399Z,46.98
2018-08-11T21:02:42.440Z,46.09
2018-08-11T21:05:14.146Z,46.08
2018-08-11T21:07:43.307Z,46.61
2018-08-11T21:10:14.340Z,46.58
2018-08-11T21:12:43.552Z,48.19
2018-08-11T21:15:13.344Z,47.47
2018-08-11T21:17:42.263Z,48.74
2018-08-11T21:20:13.084Z,48.31
2018-08-11T21:22:42.365Z,48.46
2018-08-11T21:25:11.998Z,48.61
2018-08-11T21:27:40.822Z,48.11
2018-08-11T21:30:12.796Z,48.44
2018-08-11T21:32:42.043Z,49.50
2018-08-11T21:35:11.543Z,49.90
2018-08-11T21:37:40.277Z,50.25
2018-08-11T21:40:12.598Z,50.11
2018-08-11T21:42:41.835Z,50.18
2018-08-11T21:45:10.998Z,50.17
2018-08-11T21:47:40.611Z,50.85
2018-08-11T21:50:10.114Z,50.33
2018-08-11T21:52:39.470Z,51.54
2018-08-11T21:55:09.059Z,51.45
2018-08-11T21:57:38.321Z,52.09
2018-08-11T22:00:33.366Z,51.75
2018-08-11T22:03:02.426Z,52.30
2018-08-11T22:05:31.631Z,53.12
2018-08-11T22:08:01.704Z,53.10
2018-08-11T22:10:30.728Z,54.21
2018-08-11T22:12:59.640Z,55.29
2018-08-11T22:15:28.813Z,55.48
2018-08-11T22:17:57.608Z,55.22
2018-08-11T22:20:26.471Z,56.18
2018-08-11T22:22:55.206Z,56.53
2018-08-11T22:25:24.417Z,57.21
2018-08-11T22:27:53.248Z,56.58
2018-08-11T22:30:22.028Z,57.58
2018-08-11T22:32:51.144Z,57.40
2018-08-11T22:35:20.064Z,57.90
2018-08-11T22:37:48.888Z,57.51
2018-08-11T22:40:18.447Z,58.64
2018-08-11T22:42:47.231Z,58.04
2018-08-11T22:45:16.110Z,58.28
2018-08-11T22:47:44.885Z,58.36
2018-08-11T22:50:14.739Z,59.27
2018-08-11T22:52:44.510Z,59.22
2018-08-11T22:55:13.308Z,58.66
2018-08-11T22:57:42.069Z,60.03
2018-08-11T23:00:17.175Z,59.91
2018-08-11T23:02:46.163Z,59.35
2018-08-11T23:05:15.620Z,59.86
2018-08-11T23:07:44.483Z,60.05
2018-08-11T23:10:14.477Z,59.88
2018-08-11T23:12:44.019Z,59.57
2018-08-11T23:15:15.419Z,59.78
2018-08-11T23:17:45.455Z,59.21
2018-08-11T23:20:14.850Z,59.05
2018-08-11T23:22:43.739Z,59.05
2018-08-11T23:25:13.319Z,59.75
2018-08-11T23:27:44.962Z,60.08
2018-08-11T23:30:15.714Z,60.33
2018-08-11T23:32:44.830Z,60.01
2018-08-11T23:35:14.143Z,60.19
2018-08-11T23:37:43.750Z,60.64
2018-08-11T23:40:12.898Z,60.97
2018-08-11T23:42:42.044Z,60.69
2018-08-11T23:45:13.781Z,61.09
2018-08-11T23:47:43.163Z,60.65
2018-08-11T23:50:12.917Z,61.26
2018-08-11T23:52:42.833Z,61.29
2018-08-11T23:55:12.855Z,60.88
2018-08-11T23:57:41.839Z,61.70
